Time;durP1;ratioP1;P1;durP2;ratioP2;P2;SDS_P1;SDS_P2;PMS_P1;PMS_P2;Temp;Humidity;BMP_temperature;BMP_pressure;BME280_temperature;BME280_humidity;BME280_pressure;Samples;Min_cycle;Max_cycle;Signal;HPM_P1;HPM_P2
2022/08/06 00:01:56;;;;;;;11.07;4.32;;;;;;;27.02;81.13;99789.69;5008430;28;20213;-78
2022/08/06 00:04:23;;;;;;;4.50;4.20;;;;;;;27.04;83.42;99801.13;5021073;28;20689;-77
2022/08/06 00:06:50;;;;;;;4.78;4.30;;;;;;;27.03;85.32;99810.06;4978303;28;20200;-78
2022/08/06 00:09:17;;;;;;;3.92;3.63;;;;;;;26.95;84.23;99806.97;5015440;28;20204;-77
2022/08/06 00:11:46;;;;;;;6.22;4.25;;;;;;;26.84;84.00;99790.72;5031850;28;20203;-77
2022/08/06 00:14:13;;;;;;;4.47;4.07;;;;;;;26.83;84.27;99805.84;5034306;28;20226;-77
2022/08/06 00:16:39;;;;;;;4.28;4.00;;;;;;;26.74;85.45;99809.00;5050720;28;20791;-77
2022/08/06 00:19:06;;;;;;;5.93;4.20;;;;;;;26.57;84.69;99783.34;5034643;28;20212;-76
2022/08/06 00:21:34;;;;;;;5.13;4.38;;;;;;;26.64;84.88;99794.50;5049463;28;20340;-77
2022/08/06 00:24:00;;;;;;;8.52;3.83;;;;;;;26.71;83.12;99809.16;5048745;28;20191;-77
2022/08/06 00:26:28;;;;;;;4.35;4.10;;;;;;;26.72;80.59;99813.53;5002506;28;20195;-77
2022/08/06 00:28:57;;;;;;;4.85;4.05;;;;;;;26.65;80.87;99809.47;5046755;28;20203;-78
2022/08/06 00:31:23;;;;;;;5.57;4.05;;;;;;;26.42;84.10;99805.44;5052636;28;20207;-75
2022/08/06 00:33:50;;;;;;;5.15;4.00;;;;;;;26.42;83.64;99796.59;5072531;28;20191;-77
2022/08/06 00:36:17;;;;;;;6.65;4.32;;;;;;;26.62;84.97;99804.34;5079880;28;20221;-78
2022/08/06 00:38:44;;;;;;;6.22;4.00;;;;;;;26.62;85.61;99812.31;5091763;28;20190;-78
2022/08/06 00:41:14;;;;;;;4.60;4.07;;;;;;;26.50;86.42;99797.06;5089580;28;20210;-77
2022/08/06 00:43:42;;;;;;;5.85;4.25;;;;;;;26.51;88.36;99812.91;5068113;28;20229;-76
2022/08/06 00:46:10;;;;;;;4.97;4.47;;;;;;;26.40;91.67;99798.47;5088675;28;20191;-77
2022/08/06 00:48:37;;;;;;;6.07;4.60;;;;;;;26.39;96.23;99802.09;5072487;28;20201;-77
2022/08/06 00:51:05;;;;;;;4.90;4.40;;;;;;;26.36;98.02;99803.09;5073373;28;20585;-77
2022/08/06 00:53:31;;;;;;;5.82;4.57;;;;;;;26.40;98.45;99801.13;5072477;28;20199;-76
2022/08/06 00:56:00;;;;;;;12.23;5.13;;;;;;;26.37;99.96;99794.19;5034987;28;20206;-76
2022/08/06 00:58:28;;;;;;;6.85;4.80;;;;;;;26.42;100.00;99797.47;5036514;28;20207;-77
2022/08/06 01:00:55;;;;;;;10.93;4.78;;;;;;;26.49;100.00;99804.16;5072021;28;20210;-77
2022/08/06 01:03:23;;;;;;;5.65;5.00;;;;;;;26.39;100.00;99797.63;5074487;28;20203;-78
2022/08/06 01:05:51;;;;;;;6.65;4.95;;;;;;;26.37;100.00;99810.13;5088471;28;20194;-77
2022/08/06 01:08:18;;;;;;;9.73;5.28;;;;;;;26.23;100.00;99807.38;5072097;28;20687;-75
2022/08/06 01:10:45;;;;;;;5.18;4.72;;;;;;;26.15;100.00;99815.72;5072168;28;20207;-77
2022/08/06 01:13:12;;;;;;;5.05;4.65;;;;;;;26.08;100.00;99813.44;5072003;28;20206;-77
2022/08/06 01:15:43;;;;;;;5.65;4.88;;;;;;;26.04;100.00;99810.09;5071650;28;20225;-75
2022/08/06 01:18:12;;;;;;;7.38;4.50;;;;;;;26.05;100.00;99814.47;5085163;28;20661;-78
2022/08/06 01:21:04;;;;;;;6.20;4.45;;;;;;;25.94;100.00;99794.72;5089570;28;20661;-77
2022/08/06 01:23:48;;;;;;;6.90;5.25;;;;;;;26.04;100.00;99806.59;5071940;28;20198;-77
2022/08/06 01:26:29;;;;;;;5.13;4.72;;;;;;;26.05;100.00;99809.16;5071629;28;20822;-76
2022/08/06 01:29:02;;;;;;;9.55;5.38;;;;;;;26.02;100.00;99808.47;5072725;28;20193;-77
2022/08/06 01:31:34;;;;;;;6.22;5.38;;;;;;;26.10;100.00;99803.63;5089555;28;20705;-76
2022/08/06 01:34:08;;;;;;;6.10;5.05;;;;;;;26.08;100.00;99792.19;5091881;28;20221;-76
2022/08/06 01:36:40;;;;;;;5.80;4.57;;;;;;;26.26;100.00;99809.00;5091614;28;20237;-75
2022/08/06 01:39:08;;;;;;;11.13;5.07;;;;;;;26.30;100.00;99794.59;5076116;28;20294;-75
2022/08/06 01:41:41;;;;;;;10.40;4.85;;;;;;;26.43;100.00;99814.28;5078667;28;20190;-76
2022/08/06 01:44:12;;;;;;;8.73;5.20;;;;;;;26.35;100.00;99813.81;5072562;28;20197;-76
2022/08/06 01:46:44;;;;;;;8.07;5.25;;;;;;;26.40;100.00;99815.28;5086711;28;20194;-77
2022/08/06 01:49:14;;;;;;;7.88;5.28;;;;;;;26.39;100.00;99802.09;5080541;28;20218;-75
2022/08/06 01:51:44;;;;;;;5.82;4.53;;;;;;;26.43;100.00;99804.47;5085129;28;20209;-76
2022/08/06 01:54:13;;;;;;;7.75;4.80;;;;;;;26.46;100.00;99814.09;5091026;28;20213;-76
2022/08/06 01:56:43;;;;;;;5.03;4.57;;;;;;;26.42;100.00;99810.75;5090994;28;20198;-76
2022/08/06 01:59:16;;;;;;;5.82;5.22;;;;;;;26.41;100.00;99816.16;5069950;28;20201;-76
2022/08/06 02:01:47;;;;;;;10.70;5.00;;;;;;;26.30;100.00;99808.75;5081243;28;20202;-75
2022/08/06 02:04:16;;;;;;;5.97;5.00;;;;;;;26.33;100.00;99808.59;5091485;28;20804;-75
2022/08/06 02:06:46;;;;;;;5.30;4.78;;;;;;;26.25;100.00;99788.69;5072598;28;20199;-74
2022/08/06 02:09:20;;;;;;;6.47;5.03;;;;;;;26.32;100.00;99806.88;5071090;28;20677;-74
2022/08/06 02:11:55;;;;;;;5.95;5.35;;;;;;;26.36;100.00;99802.25;5085057;28;20225;-75
2022/08/06 02:14:26;;;;;;;8.75;5.18;;;;;;;26.30;100.00;99810.53;5091381;28;20201;-75
2022/08/06 02:16:55;;;;;;;5.43;4.90;;;;;;;26.24;100.00;99810.88;5089675;28;20209;-75
2022/08/06 02:19:25;;;;;;;6.07;5.20;;;;;;;26.29;100.00;99808.84;5089025;28;20206;-75
2022/08/06 02:21:53;;;;;;;7.90;4.95;;;;;;;26.26;100.00;99806.34;5090829;28;20295;-75
2022/08/06 02:24:23;;;;;;;8.57;5.47;;;;;;;26.22;100.00;99810.13;5091132;28;20198;-74
2022/08/06 02:26:52;;;;;;;6.90;5.80;;;;;;;26.17;100.00;99801.50;5078306;28;20263;-75
2022/08/06 02:29:21;;;;;;;5.63;5.13;;;;;;;26.13;100.00;99804.31;5088511;28;20198;-75
2022/08/06 02:31:51;;;;;;;5.72;5.07;;;;;;;26.08;100.00;99787.75;5090935;28;20208;-75
2022/08/06 02:34:18;;;;;;;8.10;5.07;;;;;;;26.23;100.00;99795.88;5074648;28;20210;-75
2022/08/06 02:36:50;;;;;;;6.00;5.40;;;;;;;26.38;100.00;99784.41;5084784;28;20924;-75
2022/08/06 02:39:23;;;;;;;7.13;5.10;;;;;;;26.41;100.00;99776.25;5071175;28;20197;-75
2022/08/06 02:42:01;;;;;;;6.15;5.32;;;;;;;26.41;100.00;99785.09;5056904;28;20264;-75
2022/08/06 02:44:39;;;;;;;10.25;5.88;;;;;;;26.24;100.00;99769.22;5041782;28;21067;-75
2022/08/06 02:47:12;;;;;;;6.25;5.55;;;;;;;26.15;100.00;99781.16;5080828;28;20248;-75
2022/08/06 02:49:44;;;;;;;6.70;5.28;;;;;;;26.15;100.00;99794.44;5070883;28;20211;-75
2022/08/06 02:52:17;;;;;;;6.30;5.70;;;;;;;26.07;100.00;99798.47;5076182;28;20678;-75
2022/08/06 02:54:50;;;;;;;7.55;5.65;;;;;;;26.07;100.00;99794.03;5036152;28;20264;-76
2022/08/06 02:57:22;;;;;;;6.47;5.82;;;;;;;25.85;100.00;99774.81;5090336;28;20303;-75
2022/08/06 02:59:54;;;;;;;9.82;5.70;;;;;;;25.94;100.00;99802.69;5080450;28;20200;-76
2022/08/06 03:02:26;;;;;;;7.43;5.30;;;;;;;25.80;100.00;99806.06;5070189;28;20194;-76
2022/08/06 03:04:55;;;;;;;7.47;5.35;;;;;;;25.45;100.00;99767.16;5069439;28;20737;-75
2022/08/06 03:07:25;;;;;;;5.85;5.35;;;;;;;25.56;100.00;99805.53;5033970;28;20206;-75
2022/08/06 03:09:54;;;;;;;6.82;5.97;;;;;;;25.39;100.00;99786.06;5069454;28;20565;-75
2022/08/06 03:12:22;;;;;;;7.13;5.47;;;;;;;25.52;100.00;99803.09;5048591;28;20192;-75
2022/08/06 03:14:51;;;;;;;12.13;5.47;;;;;;;25.71;100.00;99803.03;5082787;28;20205;-75
2022/08/06 03:17:20;;;;;;;7.07;5.05;;;;;;;25.76;100.00;99775.28;5078218;28;20202;-78
2022/08/06 03:19:50;;;;;;;8.35;5.32;;;;;;;26.19;100.00;99802.28;5045734;28;20199;-78
2022/08/06 03:22:19;;;;;;;5.25;4.85;;;;;;;26.31;100.00;99786.56;5078242;28;20661;-78
2022/08/06 03:24:48;;;;;;;5.82;5.35;;;;;;;26.66;100.00;99799.72;5072117;28;20203;-77
2022/08/06 03:27:17;;;;;;;5.93;5.10;;;;;;;26.94;100.00;99810.56;5075985;28;20204;-78
2022/08/06 03:29:45;;;;;;;5.38;4.80;;;;;;;26.92;100.00;99808.00;5071181;28;20205;-77
2022/08/06 03:32:14;;;;;;;7.47;5.45;;;;;;;27.00;100.00;99815.56;5070097;28;20289;-79
2022/08/06 03:34:43;;;;;;;7.75;4.95;;;;;;;26.91;100.00;99806.28;5069076;28;20284;-79
2022/08/06 03:37:12;;;;;;;6.65;5.70;;;;;;;27.04;100.00;99820.59;5069724;28;20195;-79
2022/08/06 03:39:43;;;;;;;6.55;4.97;;;;;;;26.74;100.00;99793.03;5069589;28;20191;-79
2022/08/06 03:42:10;;;;;;;5.60;5.10;;;;;;;26.62;100.00;99756.47;5071152;28;20258;-79
2022/08/06 03:44:37;;;;;;;5.47;4.95;;;;;;;27.05;100.00;99803.69;5034438;28;20690;-80
2022/08/06 03:47:07;;;;;;;7.88;5.35;;;;;;;27.24;100.00;99835.44;5074095;28;20286;-80
2022/08/06 03:49:38;;;;;;;5.47;4.93;;;;;;;27.14;100.00;99834.25;5070727;28;20198;-77
2022/08/06 03:52:08;;;;;;;7.13;6.25;;;;;;;26.89;100.00;99812.63;5070820;28;20195;-78
2022/08/06 03:54:40;;;;;;;5.68;5.18;;;;;;;26.88;100.00;99811.78;5077626;28;20201;-78
2022/08/06 03:57:11;;;;;;;11.77;6.57;;;;;;;26.93;100.00;99836.31;5055203;28;20225;-78
2022/08/06 03:59:42;;;;;;;10.40;6.85;;;;;;;26.94;100.00;99838.03;5090468;28;20194;-77
2022/08/06 04:02:09;;;;;;;8.40;6.75;;;;;;;26.62;100.00;99838.91;5085334;28;20201;-77
2022/08/06 04:04:37;;;;;;;8.10;6.78;;;;;;;26.30;100.00;99835.34;5089601;28;20194;-77
2022/08/06 04:07:04;;;;;;;8.10;6.65;;;;;;;26.10;100.00;99841.69;5086379;28;20209;-77
2022/08/06 04:09:33;;;;;;;11.15;6.60;;;;;;;25.51;100.00;99753.59;5074888;28;20202;-77
2022/08/06 04:12:03;;;;;;;12.43;6.82;;;;;;;25.88;100.00;99833.09;5069835;28;20202;-77
2022/08/06 04:14:31;;;;;;;14.48;7.68;;;;;;;25.62;100.00;99826.47;5073051;28;20199;-78
2022/08/06 04:16:59;;;;;;;8.68;6.93;;;;;;;25.67;100.00;99838.66;5073412;28;20222;-77
2022/08/06 04:19:27;;;;;;;10.90;7.75;;;;;;;25.55;100.00;99846.28;5088123;28;20693;-78
2022/08/06 04:21:54;;;;;;;7.90;7.10;;;;;;;25.45;100.00;99826.41;5080705;28;20194;-76
2022/08/06 04:24:21;;;;;;;10.73;7.03;;;;;;;25.63;100.00;99848.56;5091925;28;20210;-77
2022/08/06 04:26:51;;;;;;;9.38;7.75;;;;;;;25.78;100.00;99846.94;5053090;28;20213;-77
2022/08/06 04:29:22;;;;;;;9.73;6.75;;;;;;;25.86;100.00;99850.94;5017628;28;20216;-75
2022/08/06 04:31:51;;;;;;;11.65;7.18;;;;;;;25.83;100.00;99829.81;5022903;28;20210;-77
2022/08/06 04:34:23;;;;;;;8.45;6.80;;;;;;;25.91;100.00;99835.59;5092783;28;20214;-76
2022/08/06 04:36:52;;;;;;;9.63;6.82;;;;;;;26.02;100.00;99854.50;5092891;28;20600;-77
2022/08/06 04:39:19;;;;;;;9.98;7.53;;;;;;;26.12;100.00;99857.53;5082556;28;20198;-78
2022/08/06 04:41:46;;;;;;;7.68;6.90;;;;;;;26.31;100.00;99865.44;5037301;28;20218;-77
2022/08/06 04:44:14;;;;;;;7.95;6.75;;;;;;;26.40;100.00;99863.16;5072745;28;20245;-78
2022/08/06 04:46:48;;;;;;;8.05;6.78;;;;;;;26.81;100.00;99868.03;5070295;28;20191;-73
2022/08/06 04:49:15;;;;;;;9.23;6.45;;;;;;;27.15;95.91;99861.75;5053690;28;20198;-75
2022/08/06 04:51:42;;;;;;;10.30;7.18;;;;;;;27.27;92.39;99845.91;5040198;28;20221;-73
2022/08/06 04:54:09;;;;;;;8.93;6.60;;;;;;;27.42;92.40;99857.50;5092273;28;20209;-72
2022/08/06 04:56:36;;;;;;;10.00;6.30;;;;;;;27.68;89.50;99861.34;5089821;28;20226;-73
2022/08/06 04:59:02;;;;;;;23.63;7.07;;;;;;;28.04;87.44;99878.66;5092567;28;20772;-72
2022/08/06 05:01:29;;;;;;;11.07;6.10;;;;;;;28.03;86.41;99871.63;5088823;28;20201;-74
2022/08/06 05:03:58;;;;;;;7.53;5.47;;;;;;;28.32;84.96;99891.25;5092553;28;20201;-74
2022/08/06 05:06:30;;;;;;;12.07;6.28;;;;;;;28.43;83.88;99882.59;5092314;28;20209;-73
2022/08/06 05:09:03;;;;;;;8.95;6.65;;;;;;;28.31;83.27;99856.66;5058048;28;20198;-73
2022/08/06 05:11:34;;;;;;;9.55;6.68;;;;;;;28.12;86.73;99882.72;5085343;28;20270;-73
2022/08/06 05:14:05;;;;;;;9.80;6.63;;;;;;;28.38;84.02;99863.31;5072345;28;20191;-74
2022/08/06 05:16:35;;;;;;;9.50;5.75;;;;;;;28.68;83.20;99877.44;5071519;28;20222;-74
2022/08/06 05:19:06;;;;;;;10.80;6.35;;;;;;;28.87;81.76;99872.66;5084838;28;20201;-72
2022/08/06 05:21:38;;;;;;;17.63;7.05;;;;;;;29.03;81.42;99849.41;5091380;28;20197;-82
2022/08/06 05:24:05;;;;;;;7.68;5.90;;;;;;;29.04;75.30;99863.56;5091393;28;20295;-77
2022/08/06 05:26:34;;;;;;;8.45;5.70;;;;;;;29.03;74.94;99861.88;5091642;28;20202;-76
2022/08/06 05:29:01;;;;;;;7.95;5.60;;;;;;;29.54;72.35;99868.31;5091866;28;20221;-76
2022/08/06 05:31:34;;;;;;;5.95;4.97;;;;;;;29.46;64.04;99859.97;5083016;28;20663;-76
2022/08/06 05:34:03;;;;;;;5.18;4.72;;;;;;;29.57;63.86;99856.59;5071278;28;20203;-76
2022/08/06 05:36:31;;;;;;;5.80;4.65;;;;;;;29.35;63.12;99851.81;5071222;28;20238;-75
2022/08/06 05:38:58;;;;;;;6.88;5.00;;;;;;;29.68;64.20;99892.31;5054408;28;20207;-77
2022/08/06 05:41:24;;;;;;;5.70;5.15;;;;;;;29.66;63.36;99891.56;5060407;28;20199;-75
2022/08/06 05:43:51;;;;;;;10.65;4.72;;;;;;;29.97;62.51;99885.03;5063340;28;20210;-78
2022/08/06 05:46:21;;;;;;;5.18;4.68;;;;;;;30.47;62.86;99884.25;5060452;28;20198;-77
2022/08/06 05:48:54;;;;;;;6.68;4.85;;;;;;;30.68;59.32;99888.09;5068658;28;20206;-76
2022/08/06 05:51:29;;;;;;;10.10;5.22;;;;;;;30.94;58.29;99881.72;5071586;28;20263;-72
2022/08/06 05:54:01;;;;;;;8.35;5.25;;;;;;;30.56;59.48;99891.66;5070873;28;20201;-74
2022/08/06 05:56:32;;;;;;;7.75;5.82;;;;;;;31.12;66.28;99884.06;5071129;28;20801;-74
2022/08/06 05:59:03;;;;;;;7.35;5.05;;;;;;;30.90;66.96;99890.94;5070428;28;20198;-72
2022/08/06 06:01:32;;;;;;;8.57;4.97;;;;;;;30.18;67.43;99885.41;5070211;28;20209;-75
2022/08/06 06:04:00;;;;;;;6.03;5.32;;;;;;;29.70;67.27;99868.16;5069396;28;20194;-75
2022/08/06 06:06:28;;;;;;;5.18;4.78;;;;;;;29.37;66.63;99876.59;5070009;28;20213;-75
2022/08/06 06:08:55;;;;;;;10.68;4.88;;;;;;;28.56;68.79;99811.50;5047802;28;20195;-74
2022/08/06 06:11:23;;;;;;;6.20;4.95;;;;;;;28.96;69.86;99882.78;5067012;28;20206;-76
2022/08/06 06:13:50;;;;;;;6.10;5.18;;;;;;;28.89;71.26;99885.94;5065648;28;20203;-74
2022/08/06 06:16:24;;;;;;;22.77;15.93;;;;;;;28.83;71.55;99879.16;5062205;28;20219;-78
2022/08/06 06:19:14;;;;;;;25.85;5.40;;;;;;;29.01;72.56;99872.66;5062232;28;20268;-76
2022/08/06 06:21:51;;;;;;;6.60;5.47;;;;;;;28.22;74.35;99820.72;5064269;28;20227;-75
2022/08/06 06:24:23;;;;;;;6.95;5.07;;;;;;;28.92;74.83;99891.94;5052174;28;20194;-80
2022/08/06 06:26:57;;;;;;;6.43;5.45;;;;;;;29.35;72.63;99884.72;5067773;28;20202;-77
2022/08/06 06:29:41;;;;;;;9.90;5.28;;;;;;;29.47;73.47;99888.38;5062616;28;20202;-76
2022/08/06 06:32:14;;;;;;;10.52;5.53;;;;;;;29.31;71.42;99860.97;5027829;28;20249;-75
2022/08/06 06:34:49;;;;;;;7.22;5.78;;;;;;;29.31;71.30;99893.03;5027593;28;20203;-77
2022/08/06 06:37:27;;;;;;;6.50;5.57;;;;;;;29.22;72.08;99850.84;5025385;28;20357;-75
2022/08/06 06:40:03;;;;;;;6.80;6.00;;;;;;;29.69;71.65;99886.00;5018164;28;20199;-74
2022/08/06 06:42:35;;;;;;;10.27;5.65;;;;;;;29.90;69.22;99881.91;5027915;28;20211;-76
2022/08/06 06:45:09;;;;;;;8.32;5.88;;;;;;;29.89;68.87;99882.91;5008845;28;20223;-76
2022/08/06 06:47:48;;;;;;;9.15;5.63;;;;;;;29.67;68.24;99839.81;4999213;28;20212;-77
2022/08/06 06:50:21;;;;;;;6.68;6.03;;;;;;;29.42;69.63;99807.69;5018802;28;20254;-79
2022/08/06 06:52:52;;;;;;;7.20;5.90;;;;;;;29.73;69.50;99879.50;5020792;28;20798;-75
2022/08/06 06:55:24;;;;;;;7.80;5.80;;;;;;;29.70;70.83;99871.69;5015223;28;20193;-75
2022/08/06 06:57:55;;;;;;;5.80;5.30;;;;;;;29.66;71.54;99846.13;5026108;28;20251;-75
2022/08/06 07:00:23;;;;;;;6.88;5.57;;;;;;;29.49;73.58;99867.78;5021566;28;20201;-76
2022/08/06 07:02:53;;;;;;;7.18;5.88;;;;;;;29.43;72.56;99833.47;5007734;28;20208;-76
2022/08/06 07:05:22;;;;;;;8.65;5.82;;;;;;;29.77;71.83;99875.66;5019854;28;20215;-77
2022/08/06 07:07:51;;;;;;;9.05;5.88;;;;;;;29.76;70.33;99860.56;5018957;28;20243;-76
2022/08/06 07:10:20;;;;;;;7.70;5.78;;;;;;;29.76;73.62;99851.69;5053356;28;20685;-75
2022/08/06 07:12:48;;;;;;;7.20;5.88;;;;;;;30.12;70.28;99875.97;5063142;28;20207;-74
2022/08/06 07:15:17;;;;;;;11.57;6.32;;;;;;;30.14;67.67;99881.22;5069703;28;20206;-76
2022/08/06 07:17:45;;;;;;;6.50;5.88;;;;;;;30.41;66.77;99877.53;5054170;28;20241;-75
2022/08/06 07:20:14;;;;;;;9.07;6.38;;;;;;;30.60;69.73;99877.09;5057550;28;20744;-75
2022/08/06 07:22:44;;;;;;;12.20;6.95;;;;;;;30.43;62.50;99880.94;5065725;28;20206;-78
2022/08/06 07:25:14;;;;;;;6.05;5.38;;;;;;;29.79;66.42;99803.38;5060980;28;20229;-75
2022/08/06 07:27:45;;;;;;;6.35;5.45;;;;;;;30.38;66.65;99874.16;5063187;28;20212;-74
2022/08/06 07:30:14;;;;;;;6.90;5.18;;;;;;;30.41;65.52;99881.97;5077125;28;20678;-77
2022/08/06 07:32:43;;;;;;;9.98;5.45;;;;;;;30.62;64.81;99880.50;5080188;28;20201;-76
2022/08/06 07:35:12;;;;;;;9.00;5.68;;;;;;;30.82;63.14;99873.75;5081596;28;20236;-76
2022/08/06 07:37:42;;;;;;;10.15;5.40;;;;;;;30.89;63.46;99865.13;5069494;28;20234;-74
2022/08/06 07:40:17;;;;;;;6.55;5.78;;;;;;;30.90;60.43;99871.34;5073994;28;20201;-76
2022/08/06 07:42:46;;;;;;;6.60;5.88;;;;;;;30.85;60.16;99852.94;5049622;28;20744;-75
2022/08/06 07:45:14;;;;;;;10.00;6.07;;;;;;;31.06;59.38;99828.28;5059570;28;20186;-76
2022/08/06 07:47:43;;;;;;;6.78;5.95;;;;;;;31.52;58.21;99872.16;5075301;28;20228;-76
2022/08/06 07:50:13;;;;;;;11.90;5.95;;;;;;;31.77;56.41;99872.03;5093043;28;20209;-72
2022/08/06 07:52:41;;;;;;;9.10;6.03;;;;;;;32.24;54.34;99876.47;5076247;28;20202;-75
2022/08/06 07:55:11;;;;;;;6.90;5.68;;;;;;;32.43;55.09;99878.53;5072861;28;20190;-76
2022/08/06 07:57:40;;;;;;;9.15;6.22;;;;;;;32.29;55.66;99873.41;5073094;28;20713;-77
2022/08/06 08:00:09;;;;;;;7.32;6.00;;;;;;;32.07;55.11;99879.56;5072877;28;20202;-76
2022/08/06 08:02:37;;;;;;;10.15;6.68;;;;;;;32.40;53.91;99882.34;5085730;28;20198;-77
2022/08/06 08:07:51;;;;;;;6.45;5.85;;;;;;;32.21;54.56;99871.34;5093354;28;20209;-76
2022/08/06 08:10:18;;;;;;;11.13;6.10;;;;;;;32.01;54.17;99877.34;5093209;28;20654;-75
2022/08/06 08:12:47;;;;;;;6.32;5.70;;;;;;;31.85;54.24;99884.88;5092836;28;20212;-75
2022/08/06 08:15:14;;;;;;;6.47;5.88;;;;;;;32.22;54.96;99880.22;5086185;28;20210;-77
2022/08/06 08:17:41;;;;;;;7.78;5.43;;;;;;;31.87;52.92;99870.34;5078256;28;20688;-77
2022/08/06 08:20:10;;;;;;;6.13;4.97;;;;;;;31.90;54.17;99877.31;5092988;28;20209;-75
2022/08/06 08:22:39;;;;;;;6.13;5.53;;;;;;;31.92;53.41;99865.50;5077351;28;20567;-76
2022/08/06 08:25:08;;;;;;;5.03;4.50;;;;;;;32.10;51.50;99873.13;5071962;28;20217;-74
2022/08/06 08:27:35;;;;;;;6.07;4.70;;;;;;;31.94;51.52;99866.22;5072738;28;20237;-75
2022/08/06 08:30:04;;;;;;;6.50;4.68;;;;;;;32.05;51.86;99865.41;5073385;28;20693;-79
2022/08/06 08:32:31;;;;;;;6.32;4.85;;;;;;;31.95;50.32;99833.06;5052802;28;20202;-76
2022/08/06 08:34:58;;;;;;;4.63;4.20;;;;;;;31.78;50.74;99824.63;5052074;28;20227;-76
2022/08/06 08:37:25;;;;;;;4.75;4.35;;;;;;;32.34;50.09;99871.22;5038647;28;20221;-75
2022/08/06 08:39:52;;;;;;;5.80;4.00;;;;;;;32.33;49.14;99869.50;5052481;28;20199;-76
2022/08/06 08:42:24;;;;;;;6.80;3.88;;;;;;;32.24;48.54;99871.09;5070200;28;20190;-75
2022/08/06 08:44:51;;;;;;;6.25;4.53;;;;;;;32.12;49.16;99872.03;5071974;28;20202;-74
2022/08/06 08:47:21;;;;;;;5.30;4.50;;;;;;;32.33;48.81;99853.41;5071957;28;20712;-73
2022/08/06 08:49:51;;;;;;;4.97;3.83;;;;;;;32.30;48.40;99875.13;5037569;28;20191;-76
2022/08/06 08:52:24;;;;;;;4.70;4.25;;;;;;;32.60;47.86;99866.53;5092620;28;20202;-74
2022/08/06 08:54:55;;;;;;;4.13;3.80;;;;;;;32.69;46.95;99844.28;5089151;28;20202;-76
2022/08/06 08:57:22;;;;;;;4.20;3.90;;;;;;;32.75;46.20;99858.09;5072247;28;20711;-78
2022/08/06 08:59:50;;;;;;;4.07;3.78;;;;;;;32.55;45.09;99857.94;5071602;28;20204;-78
2022/08/06 09:02:19;;;;;;;6.55;3.78;;;;;;;32.69;45.06;99850.53;5071288;28;20202;-78
2022/08/06 09:04:49;;;;;;;7.80;4.53;;;;;;;32.56;46.10;99859.66;5071245;28;20696;-78
2022/08/06 09:07:16;;;;;;;4.88;4.20;;;;;;;32.79;45.69;99840.75;5009733;28;20248;-77
2022/08/06 09:09:44;;;;;;;6.47;3.90;;;;;;;32.56;46.42;99833.66;5036037;28;20209;-76
2022/08/06 09:12:11;;;;;;;5.65;3.80;;;;;;;32.74;45.57;99834.06;5071393;28;20186;-77
2022/08/06 09:14:38;;;;;;;4.55;4.15;;;;;;;32.94;45.09;99838.66;5035400;28;20214;-75
2022/08/06 09:17:06;;;;;;;4.95;3.80;;;;;;;33.02;45.69;99846.09;5071182;28;20226;-74
2022/08/06 09:19:35;;;;;;;4.20;3.90;;;;;;;33.05;44.04;99841.31;5071760;28;20552;-76
2022/08/06 09:22:02;;;;;;;4.20;3.97;;;;;;;33.09;44.43;99836.56;5071403;28;20199;-75
2022/08/06 09:24:29;;;;;;;4.63;4.22;;;;;;;32.98;44.64;99824.00;5049291;28;20202;-75
2022/08/06 09:27:07;;;;;;;4.20;3.90;;;;;;;33.21;44.50;99839.09;5051750;28;20195;-76
2022/08/06 09:29:34;;;;;;;5.13;4.28;;;;;;;33.00;44.74;99846.22;5054165;28;20205;-74
2022/08/06 09:32:04;;;;;;;6.97;4.25;;;;;;;32.94;45.78;99835.97;5059652;28;20195;-75
2022/08/06 09:34:38;;;;;;;4.60;4.22;;;;;;;33.22;44.21;99839.97;5062947;28;20272;-75
2022/08/06 09:37:06;;;;;;;4.25;3.95;;;;;;;33.45;43.98;99825.47;5084307;28;20655;-76
2022/08/06 09:39:39;;;;;;;4.93;4.45;;;;;;;33.58;43.95;99826.16;5073418;28;20202;-76
2022/08/06 09:42:07;;;;;;;4.88;4.47;;;;;;;33.49;44.42;99818.88;5071026;28;20260;-76
2022/08/06 09:44:34;;;;;;;4.80;4.40;;;;;;;33.27;44.35;99802.81;5068207;28;20658;-76
2022/08/06 09:47:01;;;;;;;6.45;4.10;;;;;;;33.75;43.51;99827.44;5059724;28;20198;-76
2022/08/06 09:49:30;;;;;;;5.20;4.32;;;;;;;33.63;43.76;99826.66;5059108;28;20203;-76
2022/08/06 09:52:18;;;;;;;8.00;4.38;;;;;;;33.91;43.34;99824.28;5057258;28;20285;-75
2022/08/06 09:54:46;;;;;;;4.60;4.20;;;;;;;33.70;43.29;99798.25;5061191;28;20210;-74
2022/08/06 09:57:13;;;;;;;4.75;4.18;;;;;;;34.02;43.77;99810.78;5057395;28;20706;-74
2022/08/06 09:59:45;;;;;;;30.30;23.38;;;;;;;34.22;44.03;99820.69;5069792;28;20202;-75
2022/08/06 10:02:14;;;;;;;5.80;4.97;;;;;;;34.35;43.06;99834.81;5056350;28;20260;-74
2022/08/06 10:04:42;;;;;;;5.40;4.90;;;;;;;34.53;42.72;99821.56;5031432;28;20210;-76
2022/08/06 10:07:08;;;;;;;9.18;4.72;;;;;;;34.62;42.32;99824.31;5062809;28;20191;-77
2022/08/06 10:09:38;;;;;;;5.68;5.10;;;;;;;34.35;43.00;99814.09;5060815;28;20659;-77
2022/08/06 10:12:18;;;;;;;5.25;4.75;;;;;;;34.55;43.03;99817.75;5068247;28;20234;-78
2022/08/06 10:14:45;;;;;;;5.60;4.57;;;;;;;34.60;42.04;99828.97;5067013;28;20197;-77
2022/08/06 10:17:13;;;;;;;5.97;4.60;;;;;;;34.68;41.97;99826.47;5069863;28;20218;-77
2022/08/06 10:19:42;;;;;;;5.00;4.60;;;;;;;34.61;42.38;99819.03;5069834;28;20200;-77
2022/08/06 10:22:10;;;;;;;5.55;4.50;;;;;;;35.14;41.12;99816.97;5070126;28;20198;-77
2022/08/06 10:24:43;;;;;;;4.60;4.30;;;;;;;35.05;40.32;99815.06;5070927;28;20243;-77
2022/08/06 10:27:12;;;;;;;9.75;6.57;;;;;;;35.61;40.30;99813.47;5070926;28;20186;-78
2022/08/06 10:29:42;;;;;;;4.97;4.63;;;;;;;35.57;39.73;99820.09;5069864;28;20658;-76
2022/08/06 10:32:13;;;;;;;6.85;4.85;;;;;;;35.66;39.47;99807.66;5070665;28;20198;-79
2022/08/06 10:34:41;;;;;;;4.53;3.97;;;;;;;35.78;39.66;99801.13;5069993;28;20190;-77
2022/08/06 10:37:21;;;;;;;5.35;4.60;;;;;;;35.70;38.58;99801.84;5070332;28;20201;-77
2022/08/06 10:39:59;;;;;;;5.90;4.20;;;;;;;35.98;38.87;99783.03;5069930;28;20198;-78
2022/08/06 10:42:27;;;;;;;4.80;4.43;;;;;;;35.09;39.42;99801.19;5064896;28;20194;-75
2022/08/06 10:44:55;;;;;;;12.02;4.45;;;;;;;35.21;40.34;99807.34;5069349;28;20206;-78
2022/08/06 10:47:23;;;;;;;4.45;4.05;;;;;;;34.98;39.98;99786.97;5075375;28;20297;-75
2022/08/06 10:49:53;;;;;;;4.57;4.28;;;;;;;35.09;39.41;99803.03;5076805;28;20213;-77
2022/08/06 10:52:20;;;;;;;4.43;4.10;;;;;;;35.48;38.89;99785.91;5069280;28;20239;-77
2022/08/06 10:54:47;;;;;;;4.60;4.30;;;;;;;35.72;38.89;99798.97;5032020;28;20202;-75
2022/08/06 10:57:15;;;;;;;5.35;4.05;;;;;;;35.58;39.39;99784.06;5068211;28;20651;-75
2022/08/06 10:59:45;;;;;;;4.57;3.97;;;;;;;35.78;39.27;99788.44;5033797;28;20202;-77
2022/08/06 11:02:24;;;;;;;4.40;3.70;;;;;;;35.43;39.43;99774.69;5013545;28;20206;-77
2022/08/06 11:04:56;;;;;;;4.47;4.18;;;;;;;34.89;39.39;99720.44;5055109;28;20281;-74
2022/08/06 11:07:43;;;;;;;15.02;8.52;;;;;;;34.74;40.03;99785.53;5085464;28;20220;-76
2022/08/06 11:10:32;;;;;;;5.47;4.45;;;;;;;34.74;40.45;99782.81;5089234;28;20208;-76
2022/08/06 11:13:14;;;;;;;4.57;4.25;;;;;;;34.82;39.84;99790.19;5069886;28;20686;-75
2022/08/06 11:15:42;;;;;;;5.05;4.35;;;;;;;34.65;40.48;99789.03;5063455;28;20217;-76
2022/08/06 11:18:11;;;;;;;4.90;4.40;;;;;;;34.74;40.08;99792.75;5067508;28;20261;-77
2022/08/06 11:20:43;;;;;;;4.55;4.15;;;;;;;34.32;41.63;99782.06;5067817;28;20552;-77
2022/08/06 11:23:31;;;;;;;4.88;4.00;;;;;;;34.55;42.11;99774.66;5091869;28;20201;-75
2022/08/06 11:26:00;;;;;;;5.82;4.45;;;;;;;35.20;41.20;99786.75;5075967;28;20205;-78
2022/08/06 11:29:01;;;;;;;6.03;4.20;;;;;;;35.62;39.41;99774.72;5073550;28;20194;-76
2022/08/06 11:31:35;;;;;;;4.93;4.15;;;;;;;35.82;39.00;99763.91;5079741;28;20961;-76
2022/08/06 11:34:07;;;;;;;5.13;4.25;;;;;;;35.92;39.08;99781.78;5092205;28;20677;-78
2022/08/06 11:36:52;;;;;;;4.88;4.40;;;;;;;35.63;38.57;99779.13;5057842;28;20634;-76
2022/08/06 11:39:21;;;;;;;4.78;4.38;;;;;;;35.58;38.25;99777.81;5073121;28;20312;-76
2022/08/06 11:41:54;;;;;;;4.70;4.25;;;;;;;35.23;39.58;99773.84;5073235;28;20654;-77
2022/08/06 11:44:23;;;;;;;4.90;4.53;;;;;;;35.15;40.01;99772.84;5073392;28;20217;-78
2022/08/06 11:47:06;;;;;;;4.28;3.97;;;;;;;35.23;40.07;99775.69;5072960;28;20202;-78